sensor_id;sensor_type;location;lat;lon;timestamp;P1;durP1;ratioP1;P2;durP2;ratioP2
39190;SDS011;24916;51.676;6.614;2023-02-24T00:00:20;32.95;;;4.43;;
39190;SDS011;24916;51.676;6.614;2023-02-24T00:03:02;22.80;;;3.33;;
39190;SDS011;24916;51.676;6.614;2023-02-24T00:05:35;28.02;;;4.57;;
39190;SDS011;24916;51.676;6.614;2023-02-24T00:08:01;22.90;;;3.40;;
39190;SDS011;24916;51.676;6.614;2023-02-24T00:10:26;28.90;;;3.60;;
39190;SDS011;24916;51.676;6.614;2023-02-24T00:12:51;22.85;;;3.70;;
39190;SDS011;24916;51.676;6.614;2023-02-24T00:15:19;29.83;;;4.07;;
39190;SDS011;24916;51.676;6.614;2023-02-24T00:17:45;29.98;;;3.50;;
39190;SDS011;24916;51.676;6.614;2023-02-24T00:20:11;17.40;;;3.60;;
39190;SDS011;24916;51.676;6.614;2023-02-24T00:22:39;21.63;;;3.15;;
39190;SDS011;24916;51.676;6.614;2023-02-24T00:25:05;29.50;;;3.05;;
39190;SDS011;24916;51.676;6.614;2023-02-24T00:27:30;15.30;;;3.28;;
39190;SDS011;24916;51.676;6.614;2023-02-24T00:29:56;20.90;;;3.17;;
39190;SDS011;24916;51.676;6.614;2023-02-24T00:32:21;26.25;;;2.90;;
39190;SDS011;24916;51.676;6.614;2023-02-24T00:34:47;26.73;;;3.65;;
39190;SDS011;24916;51.676;6.614;2023-02-24T00:37:12;23.10;;;3.35;;
39190;SDS011;24916;51.676;6.614;2023-02-24T00:39:39;32.20;;;3.35;;
39190;SDS011;24916;51.676;6.614;2023-02-24T00:42:06;26.05;;;3.97;;
39190;SDS011;24916;51.676;6.614;2023-02-24T00:44:35;22.02;;;4.07;;
39190;SDS011;24916;51.676;6.614;2023-02-24T00:47:01;26.90;;;3.78;;
39190;SDS011;24916;51.676;6.614;2023-02-24T00:49:26;26.67;;;4.35;;
39190;SDS011;24916;51.676;6.614;2023-02-24T00:51:53;17.63;;;3.15;;
39190;SDS011;24916;51.676;6.614;2023-02-24T00:54:19;37.60;;;4.70;;
39190;SDS011;24916;51.676;6.614;2023-02-24T00:56:45;33.80;;;4.22;;
39190;SDS011;24916;51.676;6.614;2023-02-24T00:59:11;38.25;;;4.78;;
39190;SDS011;24916;51.676;6.614;2023-02-24T01:01:37;31.92;;;4.28;;
39190;SDS011;24916;51.676;6.614;2023-02-24T01:04:03;23.85;;;3.40;;
39190;SDS011;24916;51.676;6.614;2023-02-24T01:06:35;32.53;;;4.00;;
39190;SDS011;24916;51.676;6.614;2023-02-24T01:09:01;46.03;;;5.57;;
39190;SDS011;24916;51.676;6.614;2023-02-24T01:11:27;27.20;;;3.88;;
39190;SDS011;24916;51.676;6.614;2023-02-24T01:14:13;27.40;;;4.40;;
39190;SDS011;24916;51.676;6.614;2023-02-24T01:16:38;32.03;;;4.65;;
39190;SDS011;24916;51.676;6.614;2023-02-24T01:19:06;37.67;;;4.93;;
39190;SDS011;24916;51.676;6.614;2023-02-24T01:21:31;28.55;;;4.03;;
39190;SDS011;24916;51.676;6.614;2023-02-24T01:23:56;29.52;;;4.15;;
39190;SDS011;24916;51.676;6.614;2023-02-24T01:26:22;24.02;;;4.07;;
39190;SDS011;24916;51.676;6.614;2023-02-24T01:28:47;18.25;;;3.92;;
39190;SDS011;24916;51.676;6.614;2023-02-24T01:31:14;26.42;;;3.95;;
39190;SDS011;24916;51.676;6.614;2023-02-24T01:33:44;24.23;;;4.45;;
39190;SDS011;24916;51.676;6.614;2023-02-24T01:36:14;33.03;;;5.43;;
39190;SDS011;24916;51.676;6.614;2023-02-24T01:38:39;21.17;;;4.55;;
39190;SDS011;24916;51.676;6.614;2023-02-24T01:41:06;20.92;;;3.60;;
39190;SDS011;24916;51.676;6.614;2023-02-24T01:43:32;13.35;;;3.75;;
39190;SDS011;24916;51.676;6.614;2023-02-24T01:45:58;25.02;;;4.32;;
39190;SDS011;24916;51.676;6.614;2023-02-24T01:48:23;29.08;;;4.40;;
39190;SDS011;24916;51.676;6.614;2023-02-24T01:50:49;26.00;;;4.30;;
39190;SDS011;24916;51.676;6.614;2023-02-24T01:53:15;20.20;;;3.95;;
39190;SDS011;24916;51.676;6.614;2023-02-24T01:55:45;18.48;;;3.72;;
39190;SDS011;24916;51.676;6.614;2023-02-24T01:58:14;15.40;;;3.35;;
39190;SDS011;24916;51.676;6.614;2023-02-24T02:00:40;22.80;;;3.75;;
39190;SDS011;24916;51.676;6.614;2023-02-24T02:05:48;21.98;;;3.42;;
39190;SDS011;24916;51.676;6.614;2023-02-24T02:08:16;20.75;;;3.97;;
39190;SDS011;24916;51.676;6.614;2023-02-24T02:10:41;20.88;;;3.58;;
39190;SDS011;24916;51.676;6.614;2023-02-24T02:13:08;29.40;;;4.70;;
39190;SDS011;24916;51.676;6.614;2023-02-24T02:15:35;34.47;;;5.10;;
39190;SDS011;24916;51.676;6.614;2023-02-24T02:31:07;31.17;;;4.40;;
39190;SDS011;24916;51.676;6.614;2023-02-24T02:36:15;23.40;;;4.07;;
39190;SDS011;24916;51.676;6.614;2023-02-24T02:46:31;22.27;;;4.45;;
39190;SDS011;24916;51.676;6.614;2023-02-24T02:49:23;23.85;;;4.05;;
39190;SDS011;24916;51.676;6.614;2023-02-24T02:51:50;27.65;;;4.68;;
39190;SDS011;24916;51.676;6.614;2023-02-24T02:54:23;22.80;;;3.95;;
39190;SDS011;24916;51.676;6.614;2023-02-24T02:59:23;23.73;;;4.00;;
39190;SDS011;24916;51.676;6.614;2023-02-24T03:01:50;18.30;;;3.92;;
39190;SDS011;24916;51.676;6.614;2023-02-24T03:04:20;28.83;;;4.15;;
39190;SDS011;24916;51.676;6.614;2023-02-24T03:06:48;19.08;;;4.40;;
39190;SDS011;24916;51.676;6.614;2023-02-24T03:09:21;21.92;;;3.75;;
39190;SDS011;24916;51.676;6.614;2023-02-24T03:11:49;26.05;;;4.88;;
39190;SDS011;24916;51.676;6.614;2023-02-24T03:14:18;16.33;;;3.88;;
39190;SDS011;24916;51.676;6.614;2023-02-24T03:16:45;17.17;;;4.07;;
39190;SDS011;24916;51.676;6.614;2023-02-24T03:19:13;19.95;;;3.70;;
39190;SDS011;24916;51.676;6.614;2023-02-24T03:21:43;20.10;;;4.00;;
39190;SDS011;24916;51.676;6.614;2023-02-24T03:24:12;22.10;;;5.80;;
39190;SDS011;24916;51.676;6.614;2023-02-24T03:26:40;25.45;;;4.03;;
39190;SDS011;24916;51.676;6.614;2023-02-24T03:32:11;27.05;;;4.00;;
39190;SDS011;24916;51.676;6.614;2023-02-24T03:34:29;22.58;;;4.40;;
39190;SDS011;24916;51.676;6.614;2023-02-24T03:36:57;22.85;;;3.95;;
39190;SDS011;24916;51.676;6.614;2023-02-24T03:39:23;26.70;;;4.50;;
39190;SDS011;24916;51.676;6.614;2023-02-24T03:41:51;20.77;;;3.13;;
39190;SDS011;24916;51.676;6.614;2023-02-24T03:44:18;28.02;;;5.25;;
39190;SDS011;24916;51.676;6.614;2023-02-24T03:46:43;23.80;;;5.25;;
39190;SDS011;24916;51.676;6.614;2023-02-24T03:49:09;25.67;;;4.55;;
39190;SDS011;24916;51.676;6.614;2023-02-24T03:51:46;17.65;;;4.22;;
39190;SDS011;24916;51.676;6.614;2023-02-24T04:02:13;24.90;;;4.00;;
39190;SDS011;24916;51.676;6.614;2023-02-24T04:10:02;18.40;;;3.97;;
39190;SDS011;24916;51.676;6.614;2023-02-24T04:12:31;17.08;;;4.20;;
39190;SDS011;24916;51.676;6.614;2023-02-24T04:15:04;24.13;;;4.43;;
39190;SDS011;24916;51.676;6.614;2023-02-24T04:20:02;17.00;;;4.22;;
39190;SDS011;24916;51.676;6.614;2023-02-24T04:22:39;20.00;;;3.63;;
39190;SDS011;24916;51.676;6.614;2023-02-24T04:25:05;19.20;;;3.85;;
39190;SDS011;24916;51.676;6.614;2023-02-24T04:27:37;16.35;;;3.67;;
39190;SDS011;24916;51.676;6.614;2023-02-24T04:30:04;27.80;;;4.57;;
39190;SDS011;24916;51.676;6.614;2023-02-24T04:32:30;25.35;;;4.40;;
39190;SDS011;24916;51.676;6.614;2023-02-24T04:35:05;21.70;;;3.85;;
39190;SDS011;24916;51.676;6.614;2023-02-24T04:37:31;25.40;;;4.15;;
39190;SDS011;24916;51.676;6.614;2023-02-24T04:39:59;18.05;;;3.90;;
39190;SDS011;24916;51.676;6.614;2023-02-24T04:42:25;18.88;;;4.00;;
39190;SDS011;24916;51.676;6.614;2023-02-24T04:44:50;21.80;;;4.20;;
39190;SDS011;24916;51.676;6.614;2023-02-24T04:47:17;22.20;;;5.22;;
39190;SDS011;24916;51.676;6.614;2023-02-24T04:49:43;17.52;;;3.72;;
39190;SDS011;24916;51.676;6.614;2023-02-24T04:52:08;15.20;;;3.13;;
39190;SDS011;24916;51.676;6.614;2023-02-24T04:54:34;17.35;;;3.60;;
39190;SDS011;24916;51.676;6.614;2023-02-24T04:56:59;24.77;;;3.60;;
39190;SDS011;24916;51.676;6.614;2023-02-24T04:59:25;18.63;;;4.10;;
39190;SDS011;24916;51.676;6.614;2023-02-24T05:01:51;22.08;;;4.40;;
39190;SDS011;24916;51.676;6.614;2023-02-24T05:04:16;16.98;;;3.78;;
39190;SDS011;24916;51.676;6.614;2023-02-24T05:06:42;15.32;;;3.60;;
39190;SDS011;24916;51.676;6.614;2023-02-24T05:09:12;19.10;;;4.40;;
39190;SDS011;24916;51.676;6.614;2023-02-24T05:11:44;18.85;;;3.97;;
39190;SDS011;24916;51.676;6.614;2023-02-24T05:14:10;21.75;;;3.95;;
39190;SDS011;24916;51.676;6.614;2023-02-24T05:16:38;32.33;;;4.50;;
39190;SDS011;24916;51.676;6.614;2023-02-24T05:19:04;29.65;;;4.35;;
39190;SDS011;24916;51.676;6.614;2023-02-24T05:21:47;13.50;;;4.10;;
39190;SDS011;24916;51.676;6.614;2023-02-24T05:24:13;20.13;;;3.70;;
39190;SDS011;24916;51.676;6.614;2023-02-24T05:26:41;14.45;;;3.67;;
39190;SDS011;24916;51.676;6.614;2023-02-24T05:29:06;19.63;;;4.38;;
39190;SDS011;24916;51.676;6.614;2023-02-24T05:31:32;19.42;;;4.35;;
39190;SDS011;24916;51.676;6.614;2023-02-24T05:33:59;16.23;;;3.38;;
39190;SDS011;24916;51.676;6.614;2023-02-24T05:36:26;20.00;;;5.28;;
39190;SDS011;24916;51.676;6.614;2023-02-24T05:38:53;18.38;;;3.97;;
39190;SDS011;24916;51.676;6.614;2023-02-24T05:41:32;19.13;;;3.63;;
39190;SDS011;24916;51.676;6.614;2023-02-24T05:43:59;20.17;;;4.35;;
39190;SDS011;24916;51.676;6.614;2023-02-24T05:46:29;15.25;;;4.30;;
39190;SDS011;24916;51.676;6.614;2023-02-24T05:48:57;18.10;;;4.75;;
39190;SDS011;24916;51.676;6.614;2023-02-24T05:51:26;19.48;;;4.78;;
39190;SDS011;24916;51.676;6.614;2023-02-24T05:53:52;14.82;;;4.70;;
39190;SDS011;24916;51.676;6.614;2023-02-24T05:56:21;13.48;;;3.60;;
39190;SDS011;24916;51.676;6.614;2023-02-24T05:58:46;20.10;;;4.68;;
39190;SDS011;24916;51.676;6.614;2023-02-24T06:01:11;15.82;;;4.30;;
39190;SDS011;24916;51.676;6.614;2023-02-24T06:03:43;17.85;;;4.68;;
39190;SDS011;24916;51.676;6.614;2023-02-24T06:06:15;16.08;;;4.03;;
39190;SDS011;24916;51.676;6.614;2023-02-24T06:08:40;14.73;;;3.92;;
39190;SDS011;24916;51.676;6.614;2023-02-24T06:11:09;20.70;;;4.72;;
39190;SDS011;24916;51.676;6.614;2023-02-24T06:13:38;21.15;;;4.10;;
39190;SDS011;24916;51.676;6.614;2023-02-24T06:16:06;19.98;;;4.45;;
39190;SDS011;24916;51.676;6.614;2023-02-24T06:18:31;16.38;;;3.67;;
39190;SDS011;24916;51.676;6.614;2023-02-24T06:20:59;19.35;;;3.30;;
39190;SDS011;24916;51.676;6.614;2023-02-24T06:23:24;16.10;;;3.55;;
39190;SDS011;24916;51.676;6.614;2023-02-24T06:25:50;12.82;;;3.38;;
39190;SDS011;24916;51.676;6.614;2023-02-24T06:28:17;9.38;;;3.13;;
39190;SDS011;24916;51.676;6.614;2023-02-24T06:30:43;21.80;;;6.55;;
39190;SDS011;24916;51.676;6.614;2023-02-24T06:33:09;17.90;;;4.72;;
39190;SDS011;24916;51.676;6.614;2023-02-24T06:35:34;15.70;;;4.53;;
39190;SDS011;24916;51.676;6.614;2023-02-24T06:38:02;22.05;;;3.63;;
39190;SDS011;24916;51.676;6.614;2023-02-24T06:40:28;19.80;;;4.03;;
39190;SDS011;24916;51.676;6.614;2023-02-24T06:42:55;19.65;;;4.13;;
39190;SDS011;24916;51.676;6.614;2023-02-24T06:45:21;11.55;;;3.00;;
39190;SDS011;24916;51.676;6.614;2023-02-24T06:47:46;15.57;;;3.50;;
39190;SDS011;24916;51.676;6.614;2023-02-24T06:50:15;20.30;;;3.42;;
39190;SDS011;24916;51.676;6.614;2023-02-24T06:52:44;18.92;;;3.28;;
39190;SDS011;24916;51.676;6.614;2023-02-24T06:55:10;14.57;;;3.08;;
39190;SDS011;24916;51.676;6.614;2023-02-24T06:57:51;13.63;;;3.22;;
39190;SDS011;24916;51.676;6.614;2023-02-24T07:00:17;13.45;;;2.95;;
39190;SDS011;24916;51.676;6.614;2023-02-24T07:02:49;13.05;;;2.88;;
39190;SDS011;24916;51.676;6.614;2023-02-24T07:05:14;16.13;;;2.92;;
39190;SDS011;24916;51.676;6.614;2023-02-24T07:07:41;19.98;;;3.28;;
39190;SDS011;24916;51.676;6.614;2023-02-24T07:10:10;10.70;;;2.33;;
39190;SDS011;24916;51.676;6.614;2023-02-24T07:12:37;12.10;;;2.33;;
39190;SDS011;24916;51.676;6.614;2023-02-24T07:15:02;18.85;;;3.92;;
39190;SDS011;24916;51.676;6.614;2023-02-24T07:17:27;18.70;;;2.88;;
39190;SDS011;24916;51.676;6.614;2023-02-24T07:19:53;18.55;;;3.67;;
39190;SDS011;24916;51.676;6.614;2023-02-24T07:22:18;14.48;;;2.80;;
39190;SDS011;24916;51.676;6.614;2023-02-24T07:24:49;12.55;;;2.65;;
39190;SDS011;24916;51.676;6.614;2023-02-24T07:27:15;16.58;;;3.08;;
39190;SDS011;24916;51.676;6.614;2023-02-24T07:29:46;17.15;;;2.97;;
39190;SDS011;24916;51.676;6.614;2023-02-24T07:32:13;13.88;;;2.70;;
39190;SDS011;24916;51.676;6.614;2023-02-24T07:34:39;17.88;;;3.55;;
39190;SDS011;24916;51.676;6.614;2023-02-24T07:37:04;8.82;;;2.15;;
39190;SDS011;24916;51.676;6.614;2023-02-24T07:39:32;10.27;;;2.55;;
39190;SDS011;24916;51.676;6.614;2023-02-24T07:41:57;15.15;;;3.03;;
39190;SDS011;24916;51.676;6.614;2023-02-24T07:44:23;17.25;;;4.93;;
39190;SDS011;24916;51.676;6.614;2023-02-24T07:46:49;16.73;;;7.20;;
39190;SDS011;24916;51.676;6.614;2023-02-24T07:49:16;29.42;;;5.97;;
39190;SDS011;24916;51.676;6.614;2023-02-24T07:51:43;9.45;;;2.75;;
39190;SDS011;24916;51.676;6.614;2023-02-24T07:54:09;10.00;;;2.75;;
39190;SDS011;24916;51.676;6.614;2023-02-24T07:56:35;11.85;;;2.40;;
39190;SDS011;24916;51.676;6.614;2023-02-24T07:59:10;16.02;;;3.25;;
39190;SDS011;24916;51.676;6.614;2023-02-24T08:01:39;11.98;;;2.38;;
39190;SDS011;24916;51.676;6.614;2023-02-24T08:04:09;16.02;;;3.47;;
39190;SDS011;24916;51.676;6.614;2023-02-24T08:06:39;9.95;;;2.42;;
39190;SDS011;24916;51.676;6.614;2023-02-24T08:09:12;15.65;;;2.47;;
39190;SDS011;24916;51.676;6.614;2023-02-24T08:14:17;9.30;;;2.53;;
39190;SDS011;24916;51.676;6.614;2023-02-24T08:16:44;13.18;;;2.40;;
39190;SDS011;24916;51.676;6.614;2023-02-24T08:19:13;17.35;;;2.72;;
39190;SDS011;24916;51.676;6.614;2023-02-24T08:21:42;29.25;;;3.53;;
39190;SDS011;24916;51.676;6.614;2023-02-24T08:24:24;9.82;;;2.30;;
39190;SDS011;24916;51.676;6.614;2023-02-24T08:26:54;11.55;;;2.65;;
39190;SDS011;24916;51.676;6.614;2023-02-24T08:29:34;9.30;;;2.30;;
39190;SDS011;24916;51.676;6.614;2023-02-24T08:32:06;15.02;;;2.92;;
39190;SDS011;24916;51.676;6.614;2023-02-24T08:34:33;8.68;;;2.45;;
39190;SDS011;24916;51.676;6.614;2023-02-24T08:36:58;10.25;;;2.17;;
39190;SDS011;24916;51.676;6.614;2023-02-24T08:39:25;10.32;;;2.75;;
39190;SDS011;24916;51.676;6.614;2023-02-24T08:41:54;17.10;;;2.63;;
39190;SDS011;24916;51.676;6.614;2023-02-24T08:44:19;11.82;;;2.83;;
39190;SDS011;24916;51.676;6.614;2023-02-24T08:46:46;15.20;;;2.80;;
39190;SDS011;24916;51.676;6.614;2023-02-24T08:49:13;11.75;;;2.67;;
39190;SDS011;24916;51.676;6.614;2023-02-24T08:51:41;15.20;;;2.67;;
39190;SDS011;24916;51.676;6.614;2023-02-24T08:54:26;26.42;;;3.58;;
39190;SDS011;24916;51.676;6.614;2023-02-24T08:56:52;15.93;;;5.47;;
39190;SDS011;24916;51.676;6.614;2023-02-24T08:59:20;19.30;;;4.25;;
39190;SDS011;24916;51.676;6.614;2023-02-24T09:02:14;14.73;;;2.30;;
39190;SDS011;24916;51.676;6.614;2023-02-24T09:07:11;14.95;;;2.20;;
39190;SDS011;24916;51.676;6.614;2023-02-24T09:09:39;20.63;;;2.58;;
39190;SDS011;24916;51.676;6.614;2023-02-24T09:12:06;12.57;;;2.72;;
39190;SDS011;24916;51.676;6.614;2023-02-24T09:14:32;13.10;;;2.30;;
39190;SDS011;24916;51.676;6.614;2023-02-24T09:17:01;11.52;;;2.10;;
39190;SDS011;24916;51.676;6.614;2023-02-24T09:19:30;13.43;;;1.92;;
39190;SDS011;24916;51.676;6.614;2023-02-24T09:22:04;15.73;;;2.28;;
39190;SDS011;24916;51.676;6.614;2023-02-24T09:24:38;13.53;;;2.50;;
39190;SDS011;24916;51.676;6.614;2023-02-24T09:27:04;6.65;;;2.17;;
39190;SDS011;24916;51.676;6.614;2023-02-24T09:29:29;8.93;;;2.08;;
39190;SDS011;24916;51.676;6.614;2023-02-24T09:31:58;11.27;;;2.40;;
39190;SDS011;24916;51.676;6.614;2023-02-24T09:36:56;11.18;;;2.22;;
39190;SDS011;24916;51.676;6.614;2023-02-24T09:39:41;22.05;;;2.22;;
39190;SDS011;24916;51.676;6.614;2023-02-24T09:42:29;12.85;;;2.30;;
39190;SDS011;24916;51.676;6.614;2023-02-24T09:45:04;21.52;;;2.65;;
39190;SDS011;24916;51.676;6.614;2023-02-24T09:52:44;9.43;;;1.88;;
39190;SDS011;24916;51.676;6.614;2023-02-24T09:57:49;10.02;;;2.13;;
39190;SDS011;24916;51.676;6.614;2023-02-24T10:00:39;10.65;;;2.95;;
39190;SDS011;24916;51.676;6.614;2023-02-24T10:03:18;16.25;;;3.08;;
39190;SDS011;24916;51.676;6.614;2023-02-24T10:05:54;10.57;;;2.53;;
39190;SDS011;24916;51.676;6.614;2023-02-24T10:08:25;18.13;;;2.90;;
39190;SDS011;24916;51.676;6.614;2023-02-24T10:10:55;11.23;;;3.00;;
39190;SDS011;24916;51.676;6.614;2023-02-24T10:13:36;13.68;;;2.50;;
39190;SDS011;24916;51.676;6.614;2023-02-24T10:16:03;15.30;;;2.90;;
39190;SDS011;24916;51.676;6.614;2023-02-24T10:18:38;9.02;;;2.60;;
39190;SDS011;24916;51.676;6.614;2023-02-24T10:21:19;10.32;;;2.22;;
39190;SDS011;24916;51.676;6.614;2023-02-24T10:26:30;13.18;;;3.15;;
39190;SDS011;24916;51.676;6.614;2023-02-24T10:31:52;14.30;;;3.20;;
39190;SDS011;24916;51.676;6.614;2023-02-24T10:34:24;16.00;;;2.67;;
39190;SDS011;24916;51.676;6.614;2023-02-24T10:37:09;14.90;;;3.47;;
39190;SDS011;24916;51.676;6.614;2023-02-24T10:39:35;10.05;;;2.40;;
39190;SDS011;24916;51.676;6.614;2023-02-24T10:42:04;20.75;;;3.33;;
39190;SDS011;24916;51.676;6.614;2023-02-24T10:44:46;15.15;;;3.92;;
39190;SDS011;24916;51.676;6.614;2023-02-24T10:47:24;11.18;;;3.30;;
39190;SDS011;24916;51.676;6.614;2023-02-24T10:49:56;10.48;;;2.67;;
39190;SDS011;24916;51.676;6.614;2023-02-24T10:52:30;13.25;;;3.63;;
39190;SDS011;24916;51.676;6.614;2023-02-24T10:55:27;12.60;;;2.95;;
39190;SDS011;24916;51.676;6.614;2023-02-24T10:58:03;13.73;;;3.30;;
39190;SDS011;24916;51.676;6.614;2023-02-24T11:00:42;16.13;;;3.25;;
39190;SDS011;24916;51.676;6.614;2023-02-24T11:03:20;13.82;;;2.92;;
39190;SDS011;24916;51.676;6.614;2023-02-24T11:06:18;17.05;;;3.97;;
39190;SDS011;24916;51.676;6.614;2023-02-24T11:09:01;13.25;;;3.45;;
39190;SDS011;24916;51.676;6.614;2023-02-24T11:12:15;12.98;;;3.22;;
39190;SDS011;24916;51.676;6.614;2023-02-24T11:14:58;9.50;;;3.00;;
39190;SDS011;24916;51.676;6.614;2023-02-24T11:22:44;9.60;;;3.00;;
39190;SDS011;24916;51.676;6.614;2023-02-24T11:27:50;23.75;;;4.70;;
39190;SDS011;24916;51.676;6.614;2023-02-24T11:30:20;17.65;;;3.80;;
39190;SDS011;24916;51.676;6.614;2023-02-24T11:35:21;13.80;;;4.18;;
39190;SDS011;24916;51.676;6.614;2023-02-24T11:38:34;13.40;;;3.67;;
39190;SDS011;24916;51.676;6.614;2023-02-24T11:40:38;12.15;;;3.08;;
39190;SDS011;24916;51.676;6.614;2023-02-24T11:43:05;17.92;;;3.90;;
39190;SDS011;24916;51.676;6.614;2023-02-24T11:45:38;12.77;;;3.97;;
39190;SDS011;24916;51.676;6.614;2023-02-24T11:48:05;18.52;;;3.53;;
39190;SDS011;24916;51.676;6.614;2023-02-24T11:53:50;11.07;;;3.85;;
39190;SDS011;24916;51.676;6.614;2023-02-24T11:55:58;16.30;;;4.30;;
39190;SDS011;24916;51.676;6.614;2023-02-24T12:01:05;12.65;;;3.88;;
39190;SDS011;24916;51.676;6.614;2023-02-24T12:03:35;13.48;;;3.25;;
39190;SDS011;24916;51.676;6.614;2023-02-24T12:06:07;19.63;;;3.50;;
39190;SDS011;24916;51.676;6.614;2023-02-24T12:08:34;19.20;;;3.50;;
39190;SDS011;24916;51.676;6.614;2023-02-24T12:16:30;15.38;;;3.38;;
39190;SDS011;24916;51.676;6.614;2023-02-24T12:19:05;14.98;;;3.20;;
39190;SDS011;24916;51.676;6.614;2023-02-24T12:21:41;19.17;;;5.07;;
39190;SDS011;24916;51.676;6.614;2023-02-24T12:24:10;15.15;;;5.25;;
39190;SDS011;24916;51.676;6.614;2023-02-24T12:37:44;17.15;;;3.88;;
39190;SDS011;24916;51.676;6.614;2023-02-24T12:45:16;18.77;;;4.45;;
39190;SDS011;24916;51.676;6.614;2023-02-24T12:55:39;17.42;;;4.28;;
39190;SDS011;24916;51.676;6.614;2023-02-24T12:58:13;14.32;;;4.22;;
39190;SDS011;24916;51.676;6.614;2023-02-24T13:05:49;13.93;;;4.20;;
39190;SDS011;24916;51.676;6.614;2023-02-24T13:13:42;12.63;;;4.55;;
39190;SDS011;24916;51.676;6.614;2023-02-24T13:16:11;13.50;;;4.28;;
39190;SDS011;24916;51.676;6.614;2023-02-24T13:18:36;16.15;;;4.40;;
39190;SDS011;24916;51.676;6.614;2023-02-24T13:23:32;9.80;;;3.97;;
39190;SDS011;24916;51.676;6.614;2023-02-24T13:25:57;12.10;;;4.40;;
39190;SDS011;24916;51.676;6.614;2023-02-24T13:33:34;15.55;;;5.93;;
39190;SDS011;24916;51.676;6.614;2023-02-24T13:36:10;13.93;;;4.80;;
39190;SDS011;24916;51.676;6.614;2023-02-24T13:38:37;11.90;;;5.53;;
39190;SDS011;24916;51.676;6.614;2023-02-24T13:43:31;17.95;;;5.20;;
39190;SDS011;24916;51.676;6.614;2023-02-24T13:46:01;11.57;;;4.88;;
39190;SDS011;24916;51.676;6.614;2023-02-24T13:48:41;16.52;;;5.88;;
39190;SDS011;24916;51.676;6.614;2023-02-24T13:56:17;11.80;;;5.70;;
39190;SDS011;24916;51.676;6.614;2023-02-24T14:01:13;11.48;;;5.45;;
39190;SDS011;24916;51.676;6.614;2023-02-24T14:03:40;16.52;;;5.35;;
39190;SDS011;24916;51.676;6.614;2023-02-24T14:06:17;13.77;;;5.55;;
39190;SDS011;24916;51.676;6.614;2023-02-24T14:08:46;13.05;;;5.10;;
39190;SDS011;24916;51.676;6.614;2023-02-24T14:11:13;16.27;;;5.97;;
39190;SDS011;24916;51.676;6.614;2023-02-24T14:13:39;13.57;;;5.50;;
39190;SDS011;24916;51.676;6.614;2023-02-24T14:16:08;11.00;;;5.22;;
39190;SDS011;24916;51.676;6.614;2023-02-24T14:18:34;10.32;;;5.63;;
39190;SDS011;24916;51.676;6.614;2023-02-24T14:21:00;10.98;;;4.85;;
39190;SDS011;24916;51.676;6.614;2023-02-24T14:25:52;14.05;;;5.55;;
39190;SDS011;24916;51.676;6.614;2023-02-24T14:28:20;10.18;;;4.40;;
39190;SDS011;24916;51.676;6.614;2023-02-24T14:30:50;12.23;;;4.70;;
39190;SDS011;24916;51.676;6.614;2023-02-24T14:33:20;13.65;;;5.47;;
39190;SDS011;24916;51.676;6.614;2023-02-24T14:35:47;11.90;;;4.97;;
39190;SDS011;24916;51.676;6.614;2023-02-24T14:38:29;12.00;;;5.32;;
39190;SDS011;24916;51.676;6.614;2023-02-24T14:40:54;13.40;;;4.60;;
39190;SDS011;24916;51.676;6.614;2023-02-24T14:43:20;10.88;;;5.40;;
39190;SDS011;24916;51.676;6.614;2023-02-24T14:45:49;14.13;;;5.53;;
39190;SDS011;24916;51.676;6.614;2023-02-24T14:48:19;10.45;;;4.57;;
39190;SDS011;24916;51.676;6.614;2023-02-24T14:50:44;14.10;;;4.93;;
39190;SDS011;24916;51.676;6.614;2023-02-24T14:53:11;14.88;;;4.93;;
39190;SDS011;24916;51.676;6.614;2023-02-24T14:55:39;11.27;;;5.00;;
39190;SDS011;24916;51.676;6.614;2023-02-24T14:58:18;13.52;;;4.93;;
39190;SDS011;24916;51.676;6.614;2023-02-24T15:00:49;15.30;;;4.82;;
39190;SDS011;24916;51.676;6.614;2023-02-24T15:03:32;14.90;;;5.18;;
39190;SDS011;24916;51.676;6.614;2023-02-24T15:05:59;16.15;;;5.10;;
39190;SDS011;24916;51.676;6.614;2023-02-24T15:08:30;13.23;;;5.15;;
39190;SDS011;24916;51.676;6.614;2023-02-24T15:10:57;15.00;;;5.72;;
39190;SDS011;24916;51.676;6.614;2023-02-24T15:13:28;18.00;;;4.60;;
39190;SDS011;24916;51.676;6.614;2023-02-24T15:15:54;19.42;;;5.05;;
39190;SDS011;24916;51.676;6.614;2023-02-24T15:18:23;18.52;;;5.20;;
39190;SDS011;24916;51.676;6.614;2023-02-24T15:23:25;12.50;;;4.63;;
39190;SDS011;24916;51.676;6.614;2023-02-24T15:25:51;11.02;;;4.88;;
39190;SDS011;24916;51.676;6.614;2023-02-24T15:28:22;15.48;;;5.88;;
39190;SDS011;24916;51.676;6.614;2023-02-24T15:33:28;12.57;;;4.30;;
39190;SDS011;24916;51.676;6.614;2023-02-24T15:35:56;13.60;;;4.07;;
39190;SDS011;24916;51.676;6.614;2023-02-24T15:38:23;15.30;;;3.78;;
39190;SDS011;24916;51.676;6.614;2023-02-24T15:40:52;14.80;;;3.90;;
39190;SDS011;24916;51.676;6.614;2023-02-24T15:43:29;13.52;;;3.55;;
39190;SDS011;24916;51.676;6.614;2023-02-24T15:45:55;10.15;;;2.75;;
39190;SDS011;24916;51.676;6.614;2023-02-24T15:48:22;11.75;;;2.60;;
39190;SDS011;24916;51.676;6.614;2023-02-24T15:50:47;14.30;;;3.00;;
39190;SDS011;24916;51.676;6.614;2023-02-24T15:53:14;8.05;;;2.22;;
39190;SDS011;24916;51.676;6.614;2023-02-24T15:55:41;8.65;;;2.97;;
39190;SDS011;24916;51.676;6.614;2023-02-24T15:58:17;8.68;;;2.05;;
39190;SDS011;24916;51.676;6.614;2023-02-24T16:00:44;13.18;;;2.38;;
39190;SDS011;24916;51.676;6.614;2023-02-24T16:03:10;15.50;;;2.38;;
39190;SDS011;24916;51.676;6.614;2023-02-24T16:05:35;19.10;;;5.53;;
39190;SDS011;24916;51.676;6.614;2023-02-24T16:08:00;11.65;;;2.45;;
39190;SDS011;24916;51.676;6.614;2023-02-24T16:10:27;15.45;;;2.83;;
39190;SDS011;24916;51.676;6.614;2023-02-24T16:12:56;12.13;;;2.50;;
39190;SDS011;24916;51.676;6.614;2023-02-24T16:15:24;10.30;;;1.98;;
39190;SDS011;24916;51.676;6.614;2023-02-24T16:17:49;15.27;;;2.90;;
39190;SDS011;24916;51.676;6.614;2023-02-24T16:20:20;20.95;;;2.92;;
39190;SDS011;24916;51.676;6.614;2023-02-24T16:22:51;22.92;;;2.38;;
39190;SDS011;24916;51.676;6.614;2023-02-24T16:25:16;16.70;;;2.83;;
39190;SDS011;24916;51.676;6.614;2023-02-24T16:27:41;15.85;;;2.38;;
39190;SDS011;24916;51.676;6.614;2023-02-24T16:30:10;14.32;;;2.58;;
39190;SDS011;24916;51.676;6.614;2023-02-24T16:32:38;16.67;;;2.70;;
39190;SDS011;24916;51.676;6.614;2023-02-24T16:35:03;12.65;;;2.25;;
39190;SDS011;24916;51.676;6.614;2023-02-24T16:37:29;20.98;;;2.78;;
39190;SDS011;24916;51.676;6.614;2023-02-24T16:39:54;21.92;;;2.17;;
39190;SDS011;24916;51.676;6.614;2023-02-24T16:42:19;12.70;;;2.15;;
39190;SDS011;24916;51.676;6.614;2023-02-24T16:44:48;13.60;;;2.08;;
39190;SDS011;24916;51.676;6.614;2023-02-24T16:47:15;15.13;;;2.65;;
39190;SDS011;24916;51.676;6.614;2023-02-24T16:49:41;13.68;;;2.05;;
39190;SDS011;24916;51.676;6.614;2023-02-24T16:52:06;14.13;;;2.30;;
39190;SDS011;24916;51.676;6.614;2023-02-24T16:54:32;18.95;;;2.90;;
39190;SDS011;24916;51.676;6.614;2023-02-24T16:56:57;16.73;;;2.13;;
39190;SDS011;24916;51.676;6.614;2023-02-24T16:59:22;15.75;;;3.58;;
39190;SDS011;24916;51.676;6.614;2023-02-24T17:01:49;13.80;;;2.15;;
39190;SDS011;24916;51.676;6.614;2023-02-24T17:04:14;17.17;;;2.65;;
39190;SDS011;24916;51.676;6.614;2023-02-24T17:06:40;13.02;;;2.58;;
39190;SDS011;24916;51.676;6.614;2023-02-24T17:09:05;19.60;;;2.92;;
39190;SDS011;24916;51.676;6.614;2023-02-24T17:11:30;15.05;;;2.25;;
39190;SDS011;24916;51.676;6.614;2023-02-24T17:13:56;18.02;;;2.33;;
39190;SDS011;24916;51.676;6.614;2023-02-24T17:16:21;17.25;;;2.63;;